Terminal Aerodrome Forecast
Issued by NWS

Home | Current Version | Previous Version | Text Only | Print | Product List | Glossary On
Versions: 1 2 3 4 5 6 7 8 9 10 11 12 13
000
FTUS45 KRIW 292300
TAFWRL
TAF
KWRL 292337Z 3000/3024 VRB04KT P6SM SKC
     FM300500 16005KT P6SM VCFG SCT003 SCT200
     FM301300 VRB05KT 1SM BR BKN003
     FM301600 VRB04KT P6SM VCFG SCT020 SCT200=

USA.gov is the U.S. government's official web portal to all federal, state and local government web resources and services.